sensor_id;sensor_type;location;lat;lon;timestamp;pressure;altitude;pressure_sealevel;temperature;humidity
50087;BME280;35967;50.718;7.050;2023-08-20T00:03:52;101179.97;;;23.28;99.43
50087;BME280;35967;50.718;7.050;2023-08-20T00:13:56;101183.50;;;23.14;100.00
50087;BME280;35967;50.718;7.050;2023-08-20T00:24:01;101188.41;;;23.06;99.84
50087;BME280;35967;50.718;7.050;2023-08-20T00:34:05;101191.63;;;22.83;100.00
50087;BME280;35967;50.718;7.050;2023-08-20T00:44:11;101189.81;;;22.71;100.00
50087;BME280;35967;50.718;7.050;2023-08-20T00:54:15;101207.25;;;22.72;100.00
50087;BME280;35967;50.718;7.050;2023-08-20T01:04:19;101194.53;;;22.51;100.00
50087;BME280;35967;50.718;7.050;2023-08-20T01:14:24;101195.81;;;22.46;100.00
50087;BME280;35967;50.718;7.050;2023-08-20T01:24:38;101177.78;;;22.54;100.00
50087;BME280;35967;50.718;7.050;2023-08-20T01:34:48;101180.59;;;22.51;100.00
50087;BME280;35967;50.718;7.050;2023-08-20T01:44:51;101176.53;;;22.18;100.00
50087;BME280;35967;50.718;7.050;2023-08-20T01:54:57;101189.88;;;22.28;100.00
50087;BME280;35967;50.718;7.050;2023-08-20T02:05:01;101182.63;;;22.18;100.00
50087;BME280;35967;50.718;7.050;2023-08-20T02:15:08;101191.34;;;22.04;100.00
50087;BME280;35967;50.718;7.050;2023-08-20T02:25:13;101199.97;;;21.92;100.00
50087;BME280;35967;50.718;7.050;2023-08-20T02:35:18;101191.38;;;21.90;100.00
50087;BME280;35967;50.718;7.050;2023-08-20T02:45:24;101215.31;;;21.84;100.00
50087;BME280;35967;50.718;7.050;2023-08-20T02:55:30;101222.53;;;21.80;100.00
50087;BME280;35967;50.718;7.050;2023-08-20T03:05:33;101234.13;;;21.76;100.00
50087;BME280;35967;50.718;7.050;2023-08-20T03:15:38;101232.81;;;21.69;100.00
50087;BME280;35967;50.718;7.050;2023-08-20T03:25:42;101229.63;;;21.64;100.00
50087;BME280;35967;50.718;7.050;2023-08-20T03:35:47;101238.94;;;21.53;100.00
50087;BME280;35967;50.718;7.050;2023-08-20T03:45:50;101245.56;;;21.44;100.00
50087;BME280;35967;50.718;7.050;2023-08-20T03:55:56;101255.03;;;21.47;100.00
50087;BME280;35967;50.718;7.050;2023-08-20T04:05:59;101272.59;;;21.45;100.00
50087;BME280;35967;50.718;7.050;2023-08-20T04:16:05;101286.13;;;21.37;100.00
50087;BME280;35967;50.718;7.050;2023-08-20T04:26:09;101272.41;;;21.48;100.00
50087;BME280;35967;50.718;7.050;2023-08-20T04:36:13;101286.38;;;21.49;100.00
50087;BME280;35967;50.718;7.050;2023-08-20T04:46:17;101282.72;;;21.51;100.00
50087;BME280;35967;50.718;7.050;2023-08-20T04:56:22;101294.59;;;21.42;100.00
50087;BME280;35967;50.718;7.050;2023-08-20T05:06:28;101318.88;;;21.44;100.00
50087;BME280;35967;50.718;7.050;2023-08-20T05:16:33;101313.66;;;21.44;100.00
50087;BME280;35967;50.718;7.050;2023-08-20T05:26:37;101318.38;;;21.54;100.00
50087;BME280;35967;50.718;7.050;2023-08-20T05:36:43;101312.66;;;21.47;100.00
50087;BME280;35967;50.718;7.050;2023-08-20T05:46:46;101319.66;;;21.63;100.00
50087;BME280;35967;50.718;7.050;2023-08-20T05:56:52;101312.38;;;21.82;100.00
50087;BME280;35967;50.718;7.050;2023-08-20T06:06:55;101307.53;;;22.19;100.00
50087;BME280;35967;50.718;7.050;2023-08-20T06:17:00;101320.19;;;22.56;100.00
50087;BME280;35967;50.718;7.050;2023-08-20T06:27:04;101322.59;;;22.74;100.00
50087;BME280;35967;50.718;7.050;2023-08-20T06:37:09;101330.66;;;23.12;100.00
50087;BME280;35967;50.718;7.050;2023-08-20T06:47:13;101326.69;;;22.92;100.00
50087;BME280;35967;50.718;7.050;2023-08-20T06:57:18;101327.19;;;23.12;100.00
50087;BME280;35967;50.718;7.050;2023-08-20T07:07:21;101328.75;;;23.29;100.00
50087;BME280;35967;50.718;7.050;2023-08-20T07:17:26;101326.34;;;23.92;99.80
50087;BME280;35967;50.718;7.050;2023-08-20T07:27:30;101333.53;;;24.29;96.14
50087;BME280;35967;50.718;7.050;2023-08-20T07:37:36;101334.28;;;24.81;93.83
50087;BME280;35967;50.718;7.050;2023-08-20T07:47:44;101326.94;;;25.22;91.04
50087;BME280;35967;50.718;7.050;2023-08-20T07:57:50;101329.75;;;25.07;90.60
50087;BME280;35967;50.718;7.050;2023-08-20T08:07:55;101324.50;;;25.78;88.14
50087;BME280;35967;50.718;7.050;2023-08-20T08:17:59;101331.28;;;26.05;84.95
50087;BME280;35967;50.718;7.050;2023-08-20T08:28:03;101346.16;;;26.52;81.85
50087;BME280;35967;50.718;7.050;2023-08-20T08:38:08;101331.47;;;26.93;80.06
50087;BME280;35967;50.718;7.050;2023-08-20T08:48:12;101336.34;;;27.09;74.40
50087;BME280;35967;50.718;7.050;2023-08-20T08:58:17;101334.78;;;27.06;75.20
50087;BME280;35967;50.718;7.050;2023-08-20T09:08:20;101331.28;;;27.38;71.95
50087;BME280;35967;50.718;7.050;2023-08-20T09:18:29;101339.47;;;27.68;70.16
50087;BME280;35967;50.718;7.050;2023-08-20T09:28:40;101325.72;;;28.05;66.86
50087;BME280;35967;50.718;7.050;2023-08-20T09:38:45;101334.69;;;28.35;65.58
50087;BME280;35967;50.718;7.050;2023-08-20T09:48:51;101335.56;;;28.14;64.65
50087;BME280;35967;50.718;7.050;2023-08-20T09:59:00;101332.53;;;28.29;62.27
50087;BME280;35967;50.718;7.050;2023-08-20T10:09:04;101323.03;;;28.67;59.97
50087;BME280;35967;50.718;7.050;2023-08-20T10:19:10;101332.31;;;29.22;59.52
50087;BME280;35967;50.718;7.050;2023-08-20T10:29:35;101322.13;;;29.37;60.36
50087;BME280;35967;50.718;7.050;2023-08-20T10:39:39;101330.94;;;28.88;58.85
50087;BME280;35967;50.718;7.050;2023-08-20T10:49:44;101336.31;;;30.50;54.80
50087;BME280;35967;50.718;7.050;2023-08-20T10:59:57;101330.22;;;30.86;53.24
50087;BME280;35967;50.718;7.050;2023-08-20T11:10:01;101332.47;;;30.35;52.60
50087;BME280;35967;50.718;7.050;2023-08-20T11:20:08;101330.22;;;30.86;50.10
50087;BME280;35967;50.718;7.050;2023-08-20T11:30:13;101320.69;;;31.56;49.16
50087;BME280;35967;50.718;7.050;2023-08-20T11:40:19;101320.19;;;32.13;47.83
50087;BME280;35967;50.718;7.050;2023-08-20T11:50:23;101317.59;;;33.22;45.52
50087;BME280;35967;50.718;7.050;2023-08-20T12:00:31;101310.53;;;34.27;42.90
50087;BME280;35967;50.718;7.050;2023-08-20T12:10:35;101300.63;;;35.67;41.12
50087;BME280;35967;50.718;7.050;2023-08-20T12:20:40;101291.34;;;36.14;36.41
50087;BME280;35967;50.718;7.050;2023-08-20T12:30:44;101287.66;;;36.15;36.90
50087;BME280;35967;50.718;7.050;2023-08-20T12:40:49;101274.03;;;36.97;34.57
50087;BME280;35967;50.718;7.050;2023-08-20T12:50:53;101262.75;;;35.55;36.23
50087;BME280;35967;50.718;7.050;2023-08-20T13:00:57;101266.25;;;33.28;43.07
50087;BME280;35967;50.718;7.050;2023-08-20T13:11:03;101264.19;;;30.91;47.64
50087;BME280;35967;50.718;7.050;2023-08-20T13:21:08;101257.47;;;31.23;50.04
50087;BME280;35967;50.718;7.050;2023-08-20T13:31:11;101276.31;;;30.30;50.70
50087;BME280;35967;50.718;7.050;2023-08-20T13:41:17;101260.31;;;30.40;51.87
50087;BME280;35967;50.718;7.050;2023-08-20T13:51:20;101270.00;;;30.59;50.52
50087;BME280;35967;50.718;7.050;2023-08-20T14:01:25;101261.19;;;30.12;52.16
50087;BME280;35967;50.718;7.050;2023-08-20T14:11:28;101251.00;;;30.08;51.04
50087;BME280;35967;50.718;7.050;2023-08-20T14:21:33;101249.81;;;29.92;53.22
50087;BME280;35967;50.718;7.050;2023-08-20T14:31:36;101253.66;;;29.70;53.65
50087;BME280;35967;50.718;7.050;2023-08-20T14:41:41;101244.16;;;29.67;53.13
50087;BME280;35967;50.718;7.050;2023-08-20T14:51:44;101240.44;;;29.60;52.15
50087;BME280;35967;50.718;7.050;2023-08-20T15:01:50;101234.50;;;29.76;51.88
50087;BME280;35967;50.718;7.050;2023-08-20T15:11:53;101229.66;;;29.71;52.06
50087;BME280;35967;50.718;7.050;2023-08-20T15:21:58;101228.72;;;29.53;51.63
50087;BME280;35967;50.718;7.050;2023-08-20T15:32:01;101226.03;;;29.63;53.75
50087;BME280;35967;50.718;7.050;2023-08-20T15:42:08;101226.00;;;29.72;53.25
50087;BME280;35967;50.718;7.050;2023-08-20T15:52:11;101208.91;;;29.85;53.10
50087;BME280;35967;50.718;7.050;2023-08-20T16:02:15;101217.47;;;29.69;53.17
50087;BME280;35967;50.718;7.050;2023-08-20T16:12:19;101203.25;;;29.32;54.20
50087;BME280;35967;50.718;7.050;2023-08-20T16:22:24;101215.38;;;29.15;54.02
50087;BME280;35967;50.718;7.050;2023-08-20T16:32:27;101206.59;;;29.05;54.64
50087;BME280;35967;50.718;7.050;2023-08-20T16:42:32;101200.78;;;28.91;55.12
50087;BME280;35967;50.718;7.050;2023-08-20T16:52:36;101207.47;;;28.76;56.37
50087;BME280;35967;50.718;7.050;2023-08-20T17:02:41;101210.63;;;28.50;55.42
50087;BME280;35967;50.718;7.050;2023-08-20T17:12:44;101212.03;;;28.34;57.67
50087;BME280;35967;50.718;7.050;2023-08-20T17:22:49;101211.34;;;28.42;57.52
50087;BME280;35967;50.718;7.050;2023-08-20T17:32:53;101224.84;;;28.39;56.39
50087;BME280;35967;50.718;7.050;2023-08-20T17:42:58;101223.88;;;28.30;55.93
50087;BME280;35967;50.718;7.050;2023-08-20T17:53:03;101225.13;;;27.95;55.66
50087;BME280;35967;50.718;7.050;2023-08-20T18:03:08;101225.59;;;27.69;56.54
50087;BME280;35967;50.718;7.050;2023-08-20T18:13:12;101231.66;;;27.60;57.30
50087;BME280;35967;50.718;7.050;2023-08-20T18:23:18;101236.13;;;27.38;58.59
50087;BME280;35967;50.718;7.050;2023-08-20T18:33:21;101248.75;;;27.35;60.58
50087;BME280;35967;50.718;7.050;2023-08-20T18:43:25;101258.63;;;27.12;62.89
50087;BME280;35967;50.718;7.050;2023-08-20T18:53:32;101263.03;;;26.90;62.44
50087;BME280;35967;50.718;7.050;2023-08-20T19:03:37;101280.63;;;26.80;63.23
50087;BME280;35967;50.718;7.050;2023-08-20T19:13:40;101282.53;;;26.66;64.83
50087;BME280;35967;50.718;7.050;2023-08-20T19:23:45;101289.06;;;26.39;66.57
50087;BME280;35967;50.718;7.050;2023-08-20T19:33:48;101302.03;;;26.31;64.96
50087;BME280;35967;50.718;7.050;2023-08-20T19:43:52;101303.50;;;26.24;66.30
50087;BME280;35967;50.718;7.050;2023-08-20T19:53:55;101310.88;;;26.07;68.17
50087;BME280;35967;50.718;7.050;2023-08-20T20:04:00;101309.53;;;25.90;68.33
50087;BME280;35967;50.718;7.050;2023-08-20T20:14:04;101309.41;;;25.80;68.49
50087;BME280;35967;50.718;7.050;2023-08-20T20:24:11;101314.53;;;25.59;70.19
50087;BME280;35967;50.718;7.050;2023-08-20T20:34:14;101323.16;;;25.37;71.97
50087;BME280;35967;50.718;7.050;2023-08-20T20:44:19;101324.16;;;25.12;73.91
50087;BME280;35967;50.718;7.050;2023-08-20T20:54:22;101340.47;;;24.93;76.10
50087;BME280;35967;50.718;7.050;2023-08-20T21:04:26;101350.13;;;24.68;77.86
50087;BME280;35967;50.718;7.050;2023-08-20T21:14:32;101357.56;;;24.61;78.16
50087;BME280;35967;50.718;7.050;2023-08-20T21:24:37;101361.38;;;24.57;78.23
50087;BME280;35967;50.718;7.050;2023-08-20T21:34:40;101363.09;;;24.45;78.98
50087;BME280;35967;50.718;7.050;2023-08-20T21:44:46;101349.38;;;24.40;79.77
50087;BME280;35967;50.718;7.050;2023-08-20T21:54:50;101358.16;;;24.28;79.87
50087;BME280;35967;50.718;7.050;2023-08-20T22:05:11;101357.31;;;24.27;79.14
50087;BME280;35967;50.718;7.050;2023-08-20T22:15:14;101365.59;;;24.08;79.76
50087;BME280;35967;50.718;7.050;2023-08-20T22:25:19;101363.13;;;23.79;81.90
50087;BME280;35967;50.718;7.050;2023-08-20T22:35:22;101352.81;;;23.76;82.15
50087;BME280;35967;50.718;7.050;2023-08-20T22:45:27;101351.03;;;23.63;83.10
50087;BME280;35967;50.718;7.050;2023-08-20T22:55:31;101351.03;;;23.63;83.54
50087;BME280;35967;50.718;7.050;2023-08-20T23:05:35;101344.47;;;23.43;83.32
50087;BME280;35967;50.718;7.050;2023-08-20T23:15:38;101341.69;;;23.32;84.43
50087;BME280;35967;50.718;7.050;2023-08-20T23:25:47;101344.63;;;23.27;85.32
50087;BME280;35967;50.718;7.050;2023-08-20T23:35:51;101345.13;;;23.05;86.40
50087;BME280;35967;50.718;7.050;2023-08-20T23:45:55;101346.78;;;22.93;86.75
50087;BME280;35967;50.718;7.050;2023-08-20T23:55:58;101347.75;;;22.63;88.65
